Time;durP1;ratioP1;P1;durP2;ratioP2;P2;SDS_P1;SDS_P2;PMS_P1;PMS_P2;Temp;Humidity;BMP_temperature;BMP_pressure;BME280_temperature;BME280_humidity;BME280_pressure;Samples;Min_cycle;Max_cycle;Signal;HPM_P1;HPM_P2
2021/12/18 00:00:19;;;;;;;;;;;;;;;14.04;55.65;102813.19;4986447;27;112513;-70
2021/12/18 00:02:45;;;;;;;;;;;;;;;14.04;55.86;102812.38;4987309;27;97682;-69
2021/12/18 00:05:11;;;;;;;;;;;;;;;14.02;55.50;102804.47;4986282;27;118746;-60
2021/12/18 00:07:37;;;;;;;;;;;;;;;14.02;55.73;102793.59;4987229;27;109454;-60
2021/12/18 00:10:03;;;;;;;;;;;;;;;14.02;55.72;102799.03;4979561;27;111473;-69
2021/12/18 00:12:29;;;;;;;;;;;;;;;14.02;55.65;102812.59;4983700;28;98605;-69
2021/12/18 00:14:55;;;;;;;;;;;;;;;14.02;55.63;102807.16;4987234;27;127590;-60
2021/12/18 00:17:21;;;;;;;;;;;;;;;14.01;55.64;102810.94;4982861;28;125054;-60
2021/12/18 00:19:47;;;;;;;;;;;;;;;14.02;55.42;102806.34;4981841;27;113361;-60
2021/12/18 00:22:13;;;;;;;;;;;;;;;14.00;55.51;102806.59;4985766;27;127225;-60
2021/12/18 00:24:39;;;;;;;;;;;;;;;14.00;55.42;102798.47;4986167;28;98336;-59
2021/12/18 00:27:05;;;;;;;;;;;;;;;13.99;55.76;102791.38;4986018;28;128402;-69
2021/12/18 00:29:31;;;;;;;;;;;;;;;13.98;55.60;102790.53;4988673;27;106932;-60
2021/12/18 00:31:57;;;;;;;;;;;;;;;13.98;55.67;102787.81;4985109;28;126439;-60
2021/12/18 00:34:23;;;;;;;;;;;;;;;13.97;55.44;102786.19;4985649;27;97672;-69
2021/12/18 00:36:49;;;;;;;;;;;;;;;13.97;55.47;102788.88;4984382;27;126317;-59
2021/12/18 00:39:15;;;;;;;;;;;;;;;13.95;55.66;102780.19;4987646;27;98043;-61
2021/12/18 00:44:12;;;;;;;;;;;;;;;13.96;55.37;102787.25;4987493;27;98895;-60
2021/12/18 00:46:41;;;;;;;;;;;;;;;13.94;55.41;102781.22;4976591;27;98057;-65
2021/12/18 00:49:07;;;;;;;;;;;;;;;13.95;55.48;102787.47;4967541;28;97765;-60
2021/12/18 00:51:34;;;;;;;;;;;;;;;13.94;55.77;102783.09;4964783;28;98519;-60
2021/12/18 00:53:59;;;;;;;;;;;;;;;13.93;55.60;102782.28;4966472;28;119352;-59
2021/12/18 00:56:25;;;;;;;;;;;;;;;13.94;55.75;102780.41;4966583;28;101839;-60
2021/12/18 00:58:51;;;;;;;;;;;;;;;13.93;55.60;102779.56;4968530;28;112519;-60
2021/12/18 01:01:21;;;;;;;;;;;;;;;13.92;55.58;102786.06;4986830;28;128679;-60
2021/12/18 01:03:48;;;;;;;;;;;;;;;13.92;55.30;102791.50;4979993;27;99078;-60
2021/12/18 01:06:15;;;;;;;;;;;;;;;13.92;55.70;102788.78;4965046;28;97860;-69
2021/12/18 01:08:41;;;;;;;;;;;;;;;13.92;55.75;102791.50;4967012;28;105819;-70
2021/12/18 01:22:53;;;;;;;;;;;;;;;13.94;55.36;102810.22;4962630;28;98036;-70
2021/12/18 01:24:48;;;;;;;;;;;;;;;13.92;55.46;102796.91;4956449;27;97949;-60
2021/12/18 01:27:14;;;;;;;;;;;;;;;13.93;55.60;102800.44;4995275;27;125702;-59
2021/12/18 01:29:40;;;;;;;;;;;;;;;13.92;55.56;102794.19;4966271;28;112512;-69
2021/12/18 01:32:06;;;;;;;;;;;;;;;13.92;55.70;102796.91;4962679;28;126315;-69
2021/12/18 01:34:32;;;;;;;;;;;;;;;13.92;55.84;102796.09;4980668;28;121995;-69
2021/12/18 01:36:58;;;;;;;;;;;;;;;13.92;55.50;102794.19;4998021;27;98848;-60
2021/12/18 01:39:24;;;;;;;;;;;;;;;13.92;55.43;102794.19;4967539;28;106517;-69
2021/12/18 01:52:39;;;;;;;;;;;;;;;13.91;55.82;102797.13;4983109;28;98203;-60
2021/12/18 01:55:06;;;;;;;;;;;;;;;13.90;55.60;102796.31;4985179;27;99415;-60
2021/12/18 01:57:32;;;;;;;;;;;;;;;13.90;55.81;102793.59;4988656;27;117206;-69
2021/12/18 01:59:58;;;;;;;;;;;;;;;13.89;55.83;102783.00;4989399;27;98017;-60
2021/12/18 02:02:24;;;;;;;;;;;;;;;13.90;55.85;102784.63;4987847;28;127267;-60
2021/12/18 02:04:50;;;;;;;;;;;;;;;13.89;55.79;102783.81;4988946;27;98086;-60
2021/12/18 02:07:16;;;;;;;;;;;;;;;13.89;55.84;102772.16;4990390;28;117248;-69
2021/12/18 02:09:58;;;;;;;;;;;;;;;13.88;55.58;102773.22;4991206;27;97686;-70
2021/12/18 02:12:31;;;;;;;;;;;;;;;13.87;55.49;102774.25;4990598;28;98321;-69
2021/12/18 02:20:39;;;;;;;;;;;;;;;13.88;55.85;102776.75;4988721;27;97794;-70
2021/12/18 02:23:05;;;;;;;;;;;;;;;13.88;55.92;102778.63;4986945;27;98623;-69
2021/12/18 02:25:34;;;;;;;;;;;;;;;13.88;56.04;102765.09;4987111;28;98747;-60
2021/12/18 02:27:59;;;;;;;;;;;;;;;13.88;55.64;102767.78;4987098;27;98096;-70
2021/12/18 02:30:25;;;;;;;;;;;;;;;13.86;55.54;102770.72;4987981;27;104143;-70
2021/12/18 02:32:52;;;;;;;;;;;;;;;13.88;55.58;102770.50;4970015;28;98294;-69
2021/12/18 02:35:29;;;;;;;;;;;;;;;13.87;55.92;102774.25;4987359;27;123285;-69
2021/12/18 02:38:11;;;;;;;;;;;;;;;13.86;55.93;102772.63;4986970;27;98179;-60
2021/12/18 02:41:01;;;;;;;;;;;;;;;13.86;55.53;102776.16;4989246;27;98257;-60
2021/12/18 02:43:36;;;;;;;;;;;;;;;13.86;55.97;102781.56;4987930;27;98287;-69
2021/12/18 02:46:06;;;;;;;;;;;;;;;13.85;55.64;102779.91;4989302;27;98947;-60
2021/12/18 02:48:39;;;;;;;;;;;;;;;13.85;55.71;102771.78;4986108;27;98027;-70
2021/12/18 02:51:07;;;;;;;;;;;;;;;13.85;55.95;102770.97;4988694;28;107933;-69
2021/12/18 02:53:33;;;;;;;;;;;;;;;13.84;55.66;102778.28;4988093;27;98462;-60
2021/12/18 02:56:03;;;;;;;;;;;;;;;13.84;55.62;102777.47;4983143;27;117667;-60
2021/12/18 02:58:29;;;;;;;;;;;;;;;13.84;55.72;102770.16;4969418;28;97910;-69
2021/12/18 03:00:55;;;;;;;;;;;;;;;13.84;55.50;102775.56;4969036;28;98072;-70
2021/12/18 03:03:25;;;;;;;;;;;;;;;13.85;55.64;102771.78;4968950;28;98432;-60
2021/12/18 03:06:07;;;;;;;;;;;;;;;13.84;56.06;102769.31;4967245;28;98489;-60
2021/12/18 03:09:47;;;;;;;;;;;;;;;13.84;55.64;102759.31;4970557;28;98377;-69
2021/12/18 03:20:31;;;;;;;;;;;;;;;13.83;55.67;102767.66;4988069;27;97870;-70
2021/12/18 03:23:04;;;;;;;;;;;;;;;13.84;56.06;102761.19;4947174;28;98142;-69
2021/12/18 03:25:33;;;;;;;;;;;;;;;13.83;56.17;102763.06;4967221;28;98229;-69
2021/12/18 03:28:00;;;;;;;;;;;;;;;13.83;55.60;102754.91;4987666;27;98479;-60
2021/12/18 03:30:26;;;;;;;;;;;;;;;13.84;55.70;102761.19;4986765;27;98050;-70
2021/12/18 03:32:52;;;;;;;;;;;;;;;13.84;55.94;102750.34;4976928;28;97985;-70
2021/12/18 03:35:18;;;;;;;;;;;;;;;13.83;55.77;102754.09;4967898;28;122902;-60
2021/12/18 03:37:44;;;;;;;;;;;;;;;13.83;55.97;102752.22;4946024;28;128263;-61
2021/12/18 03:40:16;;;;;;;;;;;;;;;13.84;55.76;102750.34;4972868;28;112517;-61
2021/12/18 03:42:42;;;;;;;;;;;;;;;13.85;56.02;102757.41;4985348;28;98059;-61
2021/12/18 03:45:08;;;;;;;;;;;;;;;13.85;55.72;102746.56;4969185;28;123443;-61
2021/12/18 03:47:34;;;;;;;;;;;;;;;13.85;55.78;102741.16;4967072;28;120102;-61
2021/12/18 03:50:00;;;;;;;;;;;;;;;13.84;55.71;102743.03;4969901;28;113162;-70
2021/12/18 03:52:26;;;;;;;;;;;;;;;13.84;55.76;102731.38;4985956;28;97798;-70
2021/12/18 03:54:52;;;;;;;;;;;;;;;13.84;55.67;102732.19;4988073;27;106970;-70
2021/12/18 03:57:18;;;;;;;;;;;;;;;13.84;55.67;102737.63;4986157;27;127841;-61
2021/12/18 03:59:44;;;;;;;;;;;;;;;13.84;55.64;102745.75;4985334;27;127689;-70
2021/12/18 04:02:10;;;;;;;;;;;;;;;13.84;55.80;102739.50;4983753;27;111889;-69
2021/12/18 04:04:36;;;;;;;;;;;;;;;13.84;56.05;102736.78;4987107;27;120750;-60
2021/12/18 04:07:04;;;;;;;;;;;;;;;13.85;55.77;102743.84;4985305;28;128365;-60
2021/12/18 04:09:31;;;;;;;;;;;;;;;13.84;56.03;102734.91;4966112;28;98158;-61
2021/12/18 04:11:57;;;;;;;;;;;;;;;13.84;56.03;102734.91;4967516;28;97711;-60
2021/12/18 04:14:23;;;;;;;;;;;;;;;13.84;55.94;102726.78;4965190;28;123143;-60
2021/12/18 04:16:49;;;;;;;;;;;;;;;13.85;55.65;102724.88;4962985;28;128107;-60
2021/12/18 04:19:15;;;;;;;;;;;;;;;13.84;56.01;102723.25;4980231;28;125612;-70
2021/12/18 04:21:41;;;;;;;;;;;;;;;13.84;55.99;102723.25;4966447;28;112411;-60
2021/12/18 04:24:07;;;;;;;;;;;;;;;13.83;55.77;102727.81;4965638;28;128359;-70
2021/12/18 04:26:33;;;;;;;;;;;;;;;13.84;56.02;102715.94;4999127;27;99549;-61
2021/12/18 04:28:59;;;;;;;;;;;;;;;13.85;55.67;102727.59;4975585;28;98301;-61
2021/12/18 04:31:25;;;;;;;;;;;;;;;13.84;55.73;102721.34;4987914;28;97732;-70
2021/12/18 04:33:50;;;;;;;;;;;;;;;13.84;56.12;102724.06;4986462;28;128947;-70
2021/12/18 04:36:16;;;;;;;;;;;;;;;13.84;56.03;102720.53;4976250;28;126538;-70
2021/12/18 04:38:42;;;;;;;;;;;;;;;13.83;55.71;102727.00;4968725;28;98471;-70
2021/12/18 04:41:10;;;;;;;;;;;;;;;13.83;56.03;102725.09;4968567;28;111552;-70
2021/12/18 04:43:36;;;;;;;;;;;;;;;13.83;55.85;102732.41;4977001;27;97773;-70
2021/12/18 04:46:02;;;;;;;;;;;;;;;13.84;55.79;102723.25;4985750;28;113373;-61
2021/12/18 04:48:28;;;;;;;;;;;;;;;13.83;56.18;102733.22;4980107;27;126248;-60
2021/12/18 04:50:54;;;;;;;;;;;;;;;13.82;55.80;102722.63;4987203;28;112993;-70
2021/12/18 04:53:20;;;;;;;;;;;;;;;13.83;56.04;102722.38;4967500;28;129096;-60
2021/12/18 04:55:46;;;;;;;;;;;;;;;13.82;55.84;102717.22;4986972;28;127331;-70
2021/12/18 04:58:12;;;;;;;;;;;;;;;13.82;55.72;102718.03;4981703;27;126347;-60
2021/12/18 05:00:39;;;;;;;;;;;;;;;13.82;55.77;102719.94;4986949;27;112452;-60
2021/12/18 05:03:07;;;;;;;;;;;;;;;13.82;56.04;102723.47;4982697;28;98117;-61
2021/12/18 05:05:34;;;;;;;;;;;;;;;13.82;55.85;102731.59;4980566;28;98355;-61
2021/12/18 05:08:00;;;;;;;;;;;;;;;13.82;56.08;102734.28;4966212;28;99675;-60
2021/12/18 05:10:26;;;;;;;;;;;;;;;13.81;56.15;102732.66;4968395;28;100199;-70
2021/12/18 05:12:52;;;;;;;;;;;;;;;13.81;56.00;102737.25;4981088;28;120714;-70
2021/12/18 05:15:18;;;;;;;;;;;;;;;13.81;55.75;102734.53;4984786;27;129149;-70
2021/12/18 05:17:44;;;;;;;;;;;;;;;13.81;55.82;102740.78;4983140;27;126977;-60
2021/12/18 05:20:10;;;;;;;;;;;;;;;13.81;56.09;102751.63;4986262;27;102159;-60
2021/12/18 05:22:36;;;;;;;;;;;;;;;13.81;56.04;102753.53;4984649;28;99846;-70
2021/12/18 05:25:03;;;;;;;;;;;;;;;13.81;55.81;102748.09;4970445;27;126713;-61
2021/12/18 05:27:29;;;;;;;;;;;;;;;13.81;56.12;102746.22;4964463;28;97812;-61
2021/12/18 05:29:55;;;;;;;;;;;;;;;13.82;55.76;102747.03;4966224;28;112412;-69
2021/12/18 05:32:21;;;;;;;;;;;;;;;13.81;55.80;102746.22;4975729;28;128010;-61
2021/12/18 05:34:47;;;;;;;;;;;;;;;13.82;56.04;102741.59;4984075;27;128902;-70
2021/12/18 05:37:30;;;;;;;;;;;;;;;13.82;55.75;102747.84;4982636;28;127933;-61
2021/12/18 05:39:57;;;;;;;;;;;;;;;13.81;55.94;102745.38;4982560;28;99381;-70
2021/12/18 05:42:22;;;;;;;;;;;;;;;13.81;55.55;102742.69;4985584;28;121499;-70
2021/12/18 05:44:48;;;;;;;;;;;;;;;13.80;55.76;102744.56;4984733;27;112139;-60
2021/12/18 05:47:14;;;;;;;;;;;;;;;13.80;55.63;102744.56;4969740;28;125559;-70
2021/12/18 05:49:40;;;;;;;;;;;;;;;13.80;55.63;102741.84;4967930;28;98261;-60
2021/12/18 05:52:06;;;;;;;;;;;;;;;13.80;55.67;102735.63;4978535;28;118556;-61
2021/12/18 05:54:35;;;;;;;;;;;;;;;13.81;55.52;102739.97;4965179;28;110205;-71
2021/12/18 05:57:05;;;;;;;;;;;;;;;13.81;55.59;102737.25;4980703;28;98113;-61
2021/12/18 05:59:31;;;;;;;;;;;;;;;13.80;55.40;102736.44;4982345;27;97635;-70
2021/12/18 06:01:57;;;;;;;;;;;;;;;13.80;55.76;102741.84;4969253;28;121897;-70
2021/12/18 06:04:23;;;;;;;;;;;;;;;13.80;55.61;102744.56;4970234;28;127357;-70
2021/12/18 06:06:49;;;;;;;;;;;;;;;13.81;55.55;102734.53;4970140;28;97722;-70
2021/12/18 06:09:15;;;;;;;;;;;;;;;13.80;55.47;102735.63;4969193;28;113662;-70
2021/12/18 06:11:41;;;;;;;;;;;;;;;13.80;55.52;102739.16;4969794;28;124736;-70
2021/12/18 06:14:07;;;;;;;;;;;;;;;13.81;55.63;102732.66;4988389;27;99033;-70
2021/12/18 06:16:33;;;;;;;;;;;;;;;13.80;55.48;102738.31;4989751;28;97694;-70
2021/12/18 06:18:59;;;;;;;;;;;;;;;13.81;55.47;102731.84;4989714;27;98050;-70
2021/12/18 06:21:25;;;;;;;;;;;;;;;13.80;55.75;102731.00;4988636;28;113266;-70
2021/12/18 06:23:53;;;;;;;;;;;;;;;13.80;55.66;102724.78;4989338;28;98839;-70
2021/12/18 06:26:19;;;;;;;;;;;;;;;13.81;55.37;102729.13;4988845;28;98586;-70
2021/12/18 06:28:45;;;;;;;;;;;;;;;13.81;55.77;102721.00;4984816;27;104599;-70
2021/12/18 06:31:10;;;;;;;;;;;;;;;13.80;55.67;102724.78;4988917;28;126593;-70
2021/12/18 06:33:36;;;;;;;;;;;;;;;13.81;55.54;102729.13;4972999;28;129593;-70
2021/12/18 06:36:02;;;;;;;;;;;;;;;13.81;55.43;102721.81;4969545;28;127214;-70
2021/12/18 06:38:28;;;;;;;;;;;;;;;13.80;55.63;102730.19;4970750;28;97883;-70
2021/12/18 06:40:54;;;;;;;;;;;;;;;13.81;55.75;102729.13;4975729;28;128214;-70
2021/12/18 06:43:20;;;;;;;;;;;;;;;13.80;55.28;102720.16;4972699;28;109418;-70
2021/12/18 06:45:46;;;;;;;;;;;;;;;13.80;55.78;102725.59;4986814;28;127107;-70
2021/12/18 06:48:12;;;;;;;;;;;;;;;13.82;55.39;102722.63;4973950;28;97822;-70
2021/12/18 06:50:38;;;;;;;;;;;;;;;13.82;55.74;102717.22;4976065;28;127209;-70
2021/12/18 06:53:04;;;;;;;;;;;;;;;13.81;55.66;102715.56;4978545;28;127726;-70
2021/12/18 06:55:30;;;;;;;;;;;;;;;13.81;55.75;102718.28;4971433;28;127578;-69
2021/12/18 06:57:56;;;;;;;;;;;;;;;13.81;55.73;102708.25;4973474;28;97988;-70
2021/12/18 07:00:22;;;;;;;;;;;;;;;13.82;55.53;102709.09;4973100;28;97980;-68
2021/12/18 07:02:48;;;;;;;;;;;;;;;13.81;55.65;102705.56;4971210;28;98308;-70
2021/12/18 07:05:14;;;;;;;;;;;;;;;13.82;55.34;102712.63;4973120;28;109252;-71
2021/12/18 07:07:40;;;;;;;;;;;;;;;13.82;55.72;102712.63;4972289;28;113266;-70
2021/12/18 07:10:07;;;;;;;;;;;;;;;13.82;55.29;102714.50;4989539;28;127349;-70
2021/12/18 07:12:34;;;;;;;;;;;;;;;13.83;55.30;102716.97;4974151;28;99498;-70
2021/12/18 07:15:00;;;;;;;;;;;;;;;13.82;55.38;102712.63;4971085;28;98133;-70
2021/12/18 07:17:26;;;;;;;;;;;;;;;13.82;55.47;102701.78;4967365;28;97896;-69
2021/12/18 07:19:52;;;;;;;;;;;;;;;13.84;55.60;102705.09;4983268;27;127532;-70
2021/12/18 07:22:18;;;;;;;;;;;;;;;13.83;55.37;102703.41;4987016;28;127212;-61
2021/12/18 07:24:44;;;;;;;;;;;;;;;13.84;55.44;102699.66;4968946;28;105697;-60
2021/12/18 07:27:10;;;;;;;;;;;;;;;13.85;55.60;102708.63;4967627;28;112858;-60
2021/12/18 07:29:35;;;;;;;;;;;;;;;13.85;55.20;102705.91;4966618;28;128116;-61
2021/12/18 07:32:01;;;;;;;;;;;;;;;13.85;55.66;102697.78;4980159;28;127667;-60
2021/12/18 07:34:27;;;;;;;;;;;;;;;13.87;55.55;102698.34;4986552;27;98236;-69
2021/12/18 07:36:56;;;;;;;;;;;;;;;13.86;55.64;102697.53;4976297;28;113062;-61
2021/12/18 07:39:22;;;;;;;;;;;;;;;13.88;55.44;102694.59;4966755;28;127929;-71
2021/12/18 07:41:48;;;;;;;;;;;;;;;13.87;55.63;102691.06;4967828;28;98453;-70
2021/12/18 07:44:14;;;;;;;;;;;;;;;13.88;55.23;102700.84;4969051;28;97795;-71
2021/12/18 07:46:40;;;;;;;;;;;;;;;13.88;55.55;102694.59;4983019;28;113386;-70
2021/12/18 07:49:06;;;;;;;;;;;;;;;13.88;55.29;102700.84;4967381;28;120516;-70
2021/12/18 07:51:32;;;;;;;;;;;;;;;13.89;55.32;102698.94;4978240;27;119949;-60
2021/12/18 07:53:58;;;;;;;;;;;;;;;13.90;55.61;102704.13;4984992;27;119049;-61
2021/12/18 07:56:24;;;;;;;;;;;;;;;13.91;55.66;102694.09;4987298;27;112260;-60
2021/12/18 07:58:51;;;;;;;;;;;;;;;13.92;55.26;102695.78;4987362;27;98249;-70
2021/12/18 08:01:17;;;;;;;;;;;;;;;13.93;55.64;102697.41;4984539;28;120263;-60
2021/12/18 08:03:43;;;;;;;;;;;;;;;13.93;55.55;102692.00;4987328;28;107813;-60
2021/12/18 08:06:09;;;;;;;;;;;;;;;13.94;55.34;102693.63;4986678;27;99540;-70
2021/12/18 08:08:35;;;;;;;;;;;;;;;13.94;55.55;102690.94;4985391;27;127123;-70
2021/12/18 08:11:00;;;;;;;;;;;;;;;13.93;55.56;102695.53;4988114;27;98258;-70
2021/12/18 08:13:26;;;;;;;;;;;;;;;13.95;55.61;102695.28;4972471;28;125617;-60
2021/12/18 08:15:52;;;;;;;;;;;;;;;13.94;55.59;102686.31;4983489;28;111542;-70
2021/12/18 08:18:18;;;;;;;;;;;;;;;13.96;55.64;102694.25;4986025;27;120110;-60
2021/12/18 08:20:44;;;;;;;;;;;;;;;13.96;55.23;102686.94;4975752;28;104651;-70
2021/12/18 08:23:10;;;;;;;;;;;;;;;13.98;55.20;102681.25;4966889;28;104390;-70
2021/12/18 08:25:36;;;;;;;;;;;;;;;13.99;55.46;102678.31;4967428;28;108701;-70
2021/12/18 08:28:02;;;;;;;;;;;;;;;14.01;55.53;102669.94;4968586;28;98523;-60
2021/12/18 08:30:28;;;;;;;;;;;;;;;14.03;55.18;102669.69;4981738;28;98277;-70
2021/12/18 08:32:55;;;;;;;;;;;;;;;14.06;55.48;102666.50;4978479;28;118279;-70
2021/12/18 08:35:21;;;;;;;;;;;;;;;14.07;55.37;102673.59;4964348;28;98222;-70
2021/12/18 08:37:47;;;;;;;;;;;;;;;14.09;55.61;102666.06;4944794;28;100289;-70
2021/12/18 08:40:13;;;;;;;;;;;;;;;14.09;55.16;102669.59;4961008;28;124128;-69
2021/12/18 08:42:39;;;;;;;;;;;;;;;14.09;55.36;102674.19;4961779;28;97964;-70
2021/12/18 08:45:05;;;;;;;;;;;;;;;14.11;55.47;102672.03;4960827;28;98024;-60
2021/12/18 08:47:31;;;;;;;;;;;;;;;14.11;55.40;102667.47;4974646;27;113312;-69
2021/12/18 08:49:57;;;;;;;;;;;;;;;14.15;55.22;102673.25;4961822;28;128813;-61
2021/12/18 08:52:23;;;;;;;;;;;;;;;14.15;55.39;102679.50;4966755;28;98015;-70
2021/12/18 08:54:49;;;;;;;;;;;;;;;14.19;55.54;102671.72;4963124;28;97851;-61
2021/12/18 08:57:15;;;;;;;;;;;;;;;14.20;55.33;102682.31;4961905;28;130247;-70
2021/12/18 08:59:41;;;;;;;;;;;;;;;14.21;55.34;102680.41;4960040;28;128605;-60
2021/12/18 09:02:07;;;;;;;;;;;;;;;14.22;55.24;102663.06;4971826;28;127338;-71
2021/12/18 09:04:33;;;;;;;;;;;;;;;14.23;55.40;102673.69;4961969;28;103242;-70
2021/12/18 09:06:59;;;;;;;;;;;;;;;14.25;55.28;102671.56;4964678;28;98482;-70
2021/12/18 09:09:25;;;;;;;;;;;;;;;14.29;55.51;102668.38;4963654;28;98739;-61
2021/12/18 09:11:51;;;;;;;;;;;;;;;14.29;55.17;102666.47;4973188;28;126448;-70
2021/12/18 09:14:17;;;;;;;;;;;;;;;14.30;55.41;102670.84;4960239;28;112205;-70
2021/12/18 09:16:43;;;;;;;;;;;;;;;14.32;55.17;102670.63;4966333;28;98609;-69
2021/12/18 09:19:09;;;;;;;;;;;;;;;14.34;55.34;102669.28;4966270;28;116747;-70
2021/12/18 09:21:35;;;;;;;;;;;;;;;14.33;55.53;102673.06;4965575;28;119504;-70
2021/12/18 09:24:01;;;;;;;;;;;;;;;14.35;55.46;102668.25;4956586;28;97982;-71
2021/12/18 09:26:27;;;;;;;;;;;;;;;14.35;55.21;102664.72;4963693;28;113238;-70
2021/12/18 09:28:53;;;;;;;;;;;;;;;14.37;55.46;102662.56;4967746;28;97900;-70
2021/12/18 09:31:19;;;;;;;;;;;;;;;14.40;55.20;102654.78;4966615;28;98017;-70
2021/12/18 09:33:45;;;;;;;;;;;;;;;14.45;55.29;102657.59;4966380;28;97947;-70
2021/12/18 09:36:11;;;;;;;;;;;;;;;14.46;55.14;102653.84;4966562;28;98757;-70
2021/12/18 09:38:37;;;;;;;;;;;;;;;14.47;55.54;102643.81;4965655;28;100141;-70
2021/12/18 09:41:03;;;;;;;;;;;;;;;14.47;55.30;102644.63;4964290;28;127381;-70
2021/12/18 09:43:29;;;;;;;;;;;;;;;14.49;55.39;102649.81;4966266;28;98342;-70
2021/12/18 09:46:04;;;;;;;;;;;;;;;14.50;55.63;102635.19;4963503;28;98873;-70
2021/12/18 09:48:30;;;;;;;;;;;;;;;14.52;55.38;102635.78;4968771;28;98810;-70
2021/12/18 09:50:58;;;;;;;;;;;;;;;14.54;55.25;102633.66;4966422;28;125600;-70
2021/12/18 09:53:24;;;;;;;;;;;;;;;14.55;55.43;102623.63;4966616;28;98050;-70
2021/12/18 09:55:50;;;;;;;;;;;;;;;14.58;55.50;102614.97;4964697;28;127050;-70
2021/12/18 09:58:16;;;;;;;;;;;;;;;14.59;55.35;102611.22;4964041;28;98875;-70
2021/12/18 10:00:42;;;;;;;;;;;;;;;14.60;55.49;102607.44;4960098;28;127023;-70
2021/12/18 10:03:08;;;;;;;;;;;;;;;14.59;55.60;102612.03;4965113;28;98120;-70
2021/12/18 10:05:34;;;;;;;;;;;;;;;14.62;55.75;102602.56;4965623;28;129344;-70
2021/12/18 10:08:17;;;;;;;;;;;;;;;14.63;55.33;102596.09;4967285;28;98865;-69
2021/12/18 10:11:02;;;;;;;;;;;;;;;14.64;55.45;102598.56;4966084;28;97959;-70
2021/12/18 10:13:28;;;;;;;;;;;;;;;14.64;55.52;102593.13;4960505;28;97869;-70
2021/12/18 10:16:10;;;;;;;;;;;;;;;14.64;55.46;102589.59;4968731;28;127052;-70
2021/12/18 10:18:36;;;;;;;;;;;;;;;14.66;55.64;102593.72;4973857;27;98130;-70
2021/12/18 10:21:16;;;;;;;;;;;;;;;14.65;55.51;102594.78;4968472;28;98261;-70
2021/12/18 10:23:43;;;;;;;;;;;;;;;14.66;55.85;102588.28;4951720;28;98157;-70
2021/12/18 10:26:33;;;;;;;;;;;;;;;14.65;55.92;102589.34;4970357;28;98650;-70
2021/12/18 10:28:59;;;;;;;;;;;;;;;14.66;56.03;102585.59;4969050;28;97822;-70
2021/12/18 10:31:42;;;;;;;;;;;;;;;14.65;56.06;102581.19;4968398;28;127391;-69
2021/12/18 10:34:25;;;;;;;;;;;;;;;14.65;55.75;102578.47;4963011;28;98215;-70
2021/12/18 10:37:14;;;;;;;;;;;;;;;14.65;56.11;102577.66;4962770;28;98718;-60
2021/12/18 10:39:50;;;;;;;;;;;;;;;14.65;55.76;102570.34;4962708;28;98265;-60
2021/12/18 10:42:29;;;;;;;;;;;;;;;14.64;55.95;102576.84;4967271;28;98150;-60
2021/12/18 10:44:57;;;;;;;;;;;;;;;14.64;55.98;102573.31;4969608;27;98006;-60
2021/12/18 10:47:23;;;;;;;;;;;;;;;14.65;56.00;102574.94;4964676;28;99143;-70
2021/12/18 10:49:49;;;;;;;;;;;;;;;14.64;55.97;102568.72;4962559;28;123112;-60
2021/12/18 10:52:15;;;;;;;;;;;;;;;14.63;55.77;102569.78;4959079;28;98488;-70
2021/12/18 10:54:41;;;;;;;;;;;;;;;14.64;55.90;102576.03;4964953;28;112159;-69
2021/12/18 10:57:18;;;;;;;;;;;;;;;14.63;56.08;102567.06;4964017;28;121874;-70
2021/12/18 10:59:46;;;;;;;;;;;;;;;14.62;56.38;102570.00;4962809;28;121069;-70
2021/12/18 11:02:14;;;;;;;;;;;;;;;14.61;55.92;102565.66;4966242;28;97857;-61
2021/12/18 11:04:40;;;;;;;;;;;;;;;14.61;56.44;102558.31;4965876;28;97868;-70
2021/12/18 11:07:33;;;;;;;;;;;;;;;14.61;56.00;102562.94;4964951;28;98938;-60
2021/12/18 11:10:12;;;;;;;;;;;;;;;14.60;56.40;102553.16;4959438;28;98304;-61
2021/12/18 11:15:22;;;;;;;;;;;;;;;14.60;56.22;102547.72;4965127;28;98078;-60
2021/12/18 11:17:48;;;;;;;;;;;;;;;14.58;56.39;102548.00;4969198;28;101771;-61
2021/12/18 11:20:14;;;;;;;;;;;;;;;14.59;56.34;102537.94;4964834;28;128307;-61
2021/12/18 11:22:41;;;;;;;;;;;;;;;14.58;56.35;102530.84;4979637;28;128090;-70
2021/12/18 11:25:09;;;;;;;;;;;;;;;14.57;56.48;102527.31;4966209;28;97977;-70
2021/12/18 11:27:35;;;;;;;;;;;;;;;14.59;56.30;102537.94;4964864;28;101854;-60
2021/12/18 11:30:12;;;;;;;;;;;;;;;14.57;56.61;102523.78;4963836;28;121875;-60
2021/12/18 11:32:42;;;;;;;;;;;;;;;14.54;56.72;102519.69;4960141;28;121889;-70
2021/12/18 11:35:10;;;;;;;;;;;;;;;14.55;56.30;102517.78;4965599;28;97813;-70
2021/12/18 11:37:40;;;;;;;;;;;;;;;14.55;56.42;102513.19;4965171;28;101898;-60
2021/12/18 11:40:07;;;;;;;;;;;;;;;14.55;56.68;102506.94;4961962;28;100224;-60
2021/12/18 11:42:34;;;;;;;;;;;;;;;14.55;56.35;102505.03;4962201;28;104685;-61
2021/12/18 11:45:01;;;;;;;;;;;;;;;14.57;56.58;102494.75;4964604;28;98812;-61
2021/12/18 11:47:51;;;;;;;;;;;;;;;14.58;56.25;102498.28;4967813;28;97949;-70
2021/12/18 11:50:26;;;;;;;;;;;;;;;14.58;56.42;102496.44;4954977;28;97898;-60
2021/12/18 11:53:04;;;;;;;;;;;;;;;14.59;56.59;102497.25;4965755;28;98162;-70
2021/12/18 11:55:43;;;;;;;;;;;;;;;14.60;56.31;102485.31;4967633;28;97977;-69
2021/12/18 11:58:13;;;;;;;;;;;;;;;14.66;56.62;102489.78;4976870;28;98309;-60
2021/12/18 12:00:51;;;;;;;;;;;;;;;14.73;56.00;102493.13;4960886;28;124532;-70
2021/12/18 12:03:32;;;;;;;;;;;;;;;14.76;56.19;102483.66;4964523;28;98872;-70
2021/12/18 12:05:59;;;;;;;;;;;;;;;14.80;56.14;102484.81;4967362;28;98009;-60
2021/12/18 12:08:38;;;;;;;;;;;;;;;14.76;56.17;102479.06;4962904;28;98663;-70
2021/12/18 12:11:17;;;;;;;;;;;;;;;14.76;56.53;102476.34;4965455;28;98842;-60
2021/12/18 12:14:01;;;;;;;;;;;;;;;14.76;56.57;102480.97;4965312;28;98008;-70
2021/12/18 12:16:45;;;;;;;;;;;;;;;14.76;56.50;102478.25;4966535;28;98040;-69
2021/12/18 12:19:24;;;;;;;;;;;;;;;14.77;56.63;102485.31;4964334;28;98444;-60
2021/12/18 12:21:55;;;;;;;;;;;;;;;14.77;56.72;102479.88;4998051;27;99958;-70
2021/12/18 12:24:25;;;;;;;;;;;;;;;14.76;56.76;102487.22;4962822;28;98080;-69
2021/12/18 12:26:53;;;;;;;;;;;;;;;14.76;56.46;102472.81;4968471;28;101643;-60
2021/12/18 12:29:19;;;;;;;;;;;;;;;14.75;56.51;102471.19;4962926;28;97867;-60
2021/12/18 12:31:57;;;;;;;;;;;;;;;14.75;56.82;102473.91;4969877;28;97703;-60
2021/12/18 12:34:30;;;;;;;;;;;;;;;14.74;56.82;102467.66;4963159;28;115949;-60
2021/12/18 12:36:59;;;;;;;;;;;;;;;14.76;56.87;102470.91;4967739;28;97897;-60
2021/12/18 12:39:25;;;;;;;;;;;;;;;14.78;56.86;102471.50;4961058;28;98596;-60
2021/12/18 12:41:52;;;;;;;;;;;;;;;14.77;56.47;102467.13;4961861;28;112943;-60
2021/12/18 12:44:35;;;;;;;;;;;;;;;14.78;56.47;102460.66;4963505;28;98180;-69
2021/12/18 12:47:13;;;;;;;;;;;;;;;14.76;56.80;102464.66;4965214;28;97849;-69
2021/12/18 12:49:39;;;;;;;;;;;;;;;14.76;56.98;102464.66;4963054;28;98324;-60
2021/12/18 12:52:07;;;;;;;;;;;;;;;14.75;56.80;102453.00;4976664;28;128276;-68
2021/12/18 12:54:51;;;;;;;;;;;;;;;14.73;56.58;102458.66;4963926;28;98402;-61
2021/12/18 12:57:23;;;;;;;;;;;;;;;14.73;56.64;102457.84;4969798;28;98878;-69
2021/12/18 12:59:58;;;;;;;;;;;;;;;14.72;56.91;102451.59;4964861;28;98976;-60
2021/12/18 13:02:24;;;;;;;;;;;;;;;14.71;56.79;102454.56;4965922;28;98385;-60
2021/12/18 13:05:06;;;;;;;;;;;;;;;14.71;56.73;102449.94;4962260;28;119314;-69
2021/12/18 13:07:32;;;;;;;;;;;;;;;14.71;57.05;102444.53;4964201;28;104292;-60
2021/12/18 13:09:58;;;;;;;;;;;;;;;14.71;56.63;102441.81;4960974;28;124245;-69
2021/12/18 13:12:24;;;;;;;;;;;;;;;14.70;57.01;102447.50;4966230;28;112916;-60
2021/12/18 13:14:52;;;;;;;;;;;;;;;14.68;57.08;102430.63;4963290;28;125341;-60
2021/12/18 13:17:25;;;;;;;;;;;;;;;14.66;57.01;102427.34;4961895;28;98465;-69